sensor_id;sensor_type;location;lat;lon;timestamp;pressure;altitude;pressure_sealevel;temperature;humidity
13080;BME280;6606;49.154;9.280;2023-11-22T00:01:21;100106.69;;;5.49;100.00
13080;BME280;6606;49.154;9.280;2023-11-22T00:04:03;100098.03;;;5.46;100.00
13080;BME280;6606;49.154;9.280;2023-11-22T00:06:45;100102.66;;;5.38;100.00
13080;BME280;6606;49.154;9.280;2023-11-22T00:09:29;100094.25;;;5.23;100.00
13080;BME280;6606;49.154;9.280;2023-11-22T00:12:11;100094.09;;;5.29;100.00
13080;BME280;6606;49.154;9.280;2023-11-22T00:14:53;100100.25;;;5.28;100.00
13080;BME280;6606;49.154;9.280;2023-11-22T00:17:34;100101.84;;;5.34;100.00
13080;BME280;6606;49.154;9.280;2023-11-22T00:20:16;100106.91;;;5.42;100.00
13080;BME280;6606;49.154;9.280;2023-11-22T00:22:58;100103.31;;;5.44;100.00
13080;BME280;6606;49.154;9.280;2023-11-22T00:25:41;100113.66;;;5.52;100.00
13080;BME280;6606;49.154;9.280;2023-11-22T00:28:23;100115.56;;;5.47;100.00
13080;BME280;6606;49.154;9.280;2023-11-22T00:31:05;100115.00;;;5.36;100.00
13080;BME280;6606;49.154;9.280;2023-11-22T00:33:46;100118.94;;;5.19;100.00
13080;BME280;6606;49.154;9.280;2023-11-22T00:36:28;100116.47;;;5.13;100.00
13080;BME280;6606;49.154;9.280;2023-11-22T00:39:11;100117.28;;;5.15;100.00
13080;BME280;6606;49.154;9.280;2023-11-22T00:41:56;100121.22;;;4.99;100.00
13080;BME280;6606;49.154;9.280;2023-11-22T00:44:37;100120.25;;;5.03;100.00
13080;BME280;6606;49.154;9.280;2023-11-22T00:47:19;100137.00;;;4.99;100.00
13080;BME280;6606;49.154;9.280;2023-11-22T00:50:01;100131.00;;;4.94;100.00
13080;BME280;6606;49.154;9.280;2023-11-22T00:52:45;100137.25;;;4.90;100.00
13080;BME280;6606;49.154;9.280;2023-11-22T00:55:26;100139.13;;;4.84;100.00
13080;BME280;6606;49.154;9.280;2023-11-22T00:58:09;100145.75;;;5.01;100.00
13080;BME280;6606;49.154;9.280;2023-11-22T01:00:52;100149.34;;;4.97;100.00
13080;BME280;6606;49.154;9.280;2023-11-22T01:03:34;100149.28;;;5.00;100.00
13080;BME280;6606;49.154;9.280;2023-11-22T01:06:16;100158.84;;;5.02;100.00
13080;BME280;6606;49.154;9.280;2023-11-22T01:08:58;100158.16;;;4.96;100.00
13080;BME280;6606;49.154;9.280;2023-11-22T01:11:40;100170.34;;;5.00;100.00
13080;BME280;6606;49.154;9.280;2023-11-22T01:14:24;100159.94;;;4.94;100.00
13080;BME280;6606;49.154;9.280;2023-11-22T01:17:06;100170.19;;;5.06;100.00
13080;BME280;6606;49.154;9.280;2023-11-22T01:19:49;100173.56;;;5.11;100.00
13080;BME280;6606;49.154;9.280;2023-11-22T01:22:32;100178.59;;;5.20;100.00
13080;BME280;6606;49.154;9.280;2023-11-22T01:25:14;100177.81;;;5.17;100.00
13080;BME280;6606;49.154;9.280;2023-11-22T01:27:56;100176.94;;;5.16;100.00
13080;BME280;6606;49.154;9.280;2023-11-22T01:30:39;100183.00;;;5.20;100.00
13080;BME280;6606;49.154;9.280;2023-11-22T01:33:21;100185.34;;;5.30;100.00
13080;BME280;6606;49.154;9.280;2023-11-22T01:36:03;100185.59;;;5.21;100.00
13080;BME280;6606;49.154;9.280;2023-11-22T01:38:45;100180.09;;;5.30;100.00
13080;BME280;6606;49.154;9.280;2023-11-22T01:41:27;100191.09;;;5.12;100.00
13080;BME280;6606;49.154;9.280;2023-11-22T01:44:10;100197.22;;;5.13;100.00
13080;BME280;6606;49.154;9.280;2023-11-22T01:46:53;100198.38;;;5.01;100.00
13080;BME280;6606;49.154;9.280;2023-11-22T01:49:36;100213.09;;;5.09;100.00
13080;BME280;6606;49.154;9.280;2023-11-22T01:52:18;100221.41;;;4.93;100.00
13080;BME280;6606;49.154;9.280;2023-11-22T01:55:00;100239.56;;;4.66;100.00
13080;BME280;6606;49.154;9.280;2023-11-22T01:57:45;100229.03;;;4.66;100.00
13080;BME280;6606;49.154;9.280;2023-11-22T02:00:28;100232.53;;;4.65;100.00
13080;BME280;6606;49.154;9.280;2023-11-22T02:03:14;100223.72;;;4.68;100.00
13080;BME280;6606;49.154;9.280;2023-11-22T02:05:56;100231.06;;;4.92;100.00
13080;BME280;6606;49.154;9.280;2023-11-22T02:08:39;100231.13;;;4.89;100.00
13080;BME280;6606;49.154;9.280;2023-11-22T02:11:21;100236.44;;;4.86;100.00
13080;BME280;6606;49.154;9.280;2023-11-22T02:14:04;100240.16;;;4.79;100.00
13080;BME280;6606;49.154;9.280;2023-11-22T02:16:47;100243.19;;;4.57;100.00
13080;BME280;6606;49.154;9.280;2023-11-22T02:19:31;100242.19;;;4.66;100.00
13080;BME280;6606;49.154;9.280;2023-11-22T02:22:13;100226.19;;;4.75;100.00
13080;BME280;6606;49.154;9.280;2023-11-22T02:24:57;100232.53;;;4.65;100.00
13080;BME280;6606;49.154;9.280;2023-11-22T02:27:39;100227.19;;;4.70;100.00
13080;BME280;6606;49.154;9.280;2023-11-22T02:30:21;100225.56;;;4.62;100.00
13080;BME280;6606;49.154;9.280;2023-11-22T02:33:05;100230.41;;;4.82;100.00
13080;BME280;6606;49.154;9.280;2023-11-22T02:35:47;100236.16;;;4.59;100.00
13080;BME280;6606;49.154;9.280;2023-11-22T02:38:30;100236.00;;;4.69;100.00
13080;BME280;6606;49.154;9.280;2023-11-22T02:41:13;100239.56;;;4.64;100.00
13080;BME280;6606;49.154;9.280;2023-11-22T02:43:55;100243.25;;;4.56;100.00
13080;BME280;6606;49.154;9.280;2023-11-22T02:46:37;100248.69;;;4.47;100.00
13080;BME280;6606;49.154;9.280;2023-11-22T02:49:19;100250.91;;;4.26;100.00
13080;BME280;6606;49.154;9.280;2023-11-22T02:52:01;100251.84;;;4.22;100.00
13080;BME280;6606;49.154;9.280;2023-11-22T02:54:43;100268.25;;;4.33;100.00
13080;BME280;6606;49.154;9.280;2023-11-22T02:57:27;100278.19;;;4.19;100.00
13080;BME280;6606;49.154;9.280;2023-11-22T03:00:10;100285.16;;;4.21;100.00
13080;BME280;6606;49.154;9.280;2023-11-22T03:02:54;100295.47;;;4.31;100.00
13080;BME280;6606;49.154;9.280;2023-11-22T03:05:36;100296.25;;;4.37;100.00
13080;BME280;6606;49.154;9.280;2023-11-22T03:08:18;100301.47;;;4.39;100.00
13080;BME280;6606;49.154;9.280;2023-11-22T03:11:00;100308.53;;;4.35;100.00
13080;BME280;6606;49.154;9.280;2023-11-22T03:13:44;100302.72;;;4.19;100.00
13080;BME280;6606;49.154;9.280;2023-11-22T03:16:25;100306.06;;;4.28;100.00
13080;BME280;6606;49.154;9.280;2023-11-22T03:19:07;100314.63;;;4.39;100.00
13080;BME280;6606;49.154;9.280;2023-11-22T03:21:49;100316.16;;;4.49;100.00
13080;BME280;6606;49.154;9.280;2023-11-22T03:24:31;100314.63;;;4.39;100.00
13080;BME280;6606;49.154;9.280;2023-11-22T03:27:14;100306.69;;;4.40;100.00
13080;BME280;6606;49.154;9.280;2023-11-22T03:29:57;100306.91;;;4.30;100.00
13080;BME280;6606;49.154;9.280;2023-11-22T03:32:39;100313.66;;;4.41;100.00
13080;BME280;6606;49.154;9.280;2023-11-22T03:35:21;100320.41;;;4.56;100.00
13080;BME280;6606;49.154;9.280;2023-11-22T03:38:02;100325.53;;;4.64;100.00
13080;BME280;6606;49.154;9.280;2023-11-22T03:40:45;100333.53;;;4.58;100.00
13080;BME280;6606;49.154;9.280;2023-11-22T03:43:28;100339.59;;;4.60;100.00
13080;BME280;6606;49.154;9.280;2023-11-22T03:46:11;100333.44;;;4.64;100.00
13080;BME280;6606;49.154;9.280;2023-11-22T03:49:06;100334.34;;;4.60;100.00
13080;BME280;6606;49.154;9.280;2023-11-22T03:51:48;100344.00;;;4.59;100.00
13080;BME280;6606;49.154;9.280;2023-11-22T03:54:31;100345.56;;;4.71;100.00
13080;BME280;6606;49.154;9.280;2023-11-22T03:57:13;100341.09;;;4.76;100.00
13080;BME280;6606;49.154;9.280;2023-11-22T04:00:08;100349.28;;;4.59;100.00
13080;BME280;6606;49.154;9.280;2023-11-22T04:02:56;100353.56;;;4.65;100.00
13080;BME280;6606;49.154;9.280;2023-11-22T04:05:40;100356.91;;;4.73;100.00
13080;BME280;6606;49.154;9.280;2023-11-22T04:08:23;100352.81;;;4.57;100.00
13080;BME280;6606;49.154;9.280;2023-11-22T04:11:07;100346.63;;;4.61;100.00
13080;BME280;6606;49.154;9.280;2023-11-22T04:13:51;100356.44;;;4.53;100.00
13080;BME280;6606;49.154;9.280;2023-11-22T04:16:33;100365.00;;;4.64;100.00
13080;BME280;6606;49.154;9.280;2023-11-22T04:19:22;100357.22;;;4.58;100.00
13080;BME280;6606;49.154;9.280;2023-11-22T04:22:05;100360.84;;;4.51;100.00
13080;BME280;6606;49.154;9.280;2023-11-22T04:24:47;100360.78;;;4.54;100.00
13080;BME280;6606;49.154;9.280;2023-11-22T04:27:29;100367.03;;;4.50;100.00
13080;BME280;6606;49.154;9.280;2023-11-22T04:30:11;100373.88;;;4.57;100.00
13080;BME280;6606;49.154;9.280;2023-11-22T04:32:54;100378.47;;;4.46;100.00
13080;BME280;6606;49.154;9.280;2023-11-22T04:35:37;100387.44;;;4.35;100.00
13080;BME280;6606;49.154;9.280;2023-11-22T04:38:20;100399.59;;;4.42;100.00
13080;BME280;6606;49.154;9.280;2023-11-22T04:41:01;100398.03;;;4.32;100.00
13080;BME280;6606;49.154;9.280;2023-11-22T04:43:45;100401.41;;;4.39;100.00
13080;BME280;6606;49.154;9.280;2023-11-22T04:46:26;100408.25;;;4.48;100.00
13080;BME280;6606;49.154;9.280;2023-11-22T04:49:14;100408.41;;;4.38;100.00
13080;BME280;6606;49.154;9.280;2023-11-22T04:51:57;100409.97;;;4.50;100.00
13080;BME280;6606;49.154;9.280;2023-11-22T04:54:39;100416.06;;;4.52;100.00
13080;BME280;6606;49.154;9.280;2023-11-22T04:57:22;100422.19;;;4.53;100.00
13080;BME280;6606;49.154;9.280;2023-11-22T05:00:05;100429.31;;;4.48;100.00
13080;BME280;6606;49.154;9.280;2023-11-22T05:02:47;100427.47;;;4.53;100.00
13080;BME280;6606;49.154;9.280;2023-11-22T05:05:29;100432.78;;;4.50;100.00
13080;BME280;6606;49.154;9.280;2023-11-22T05:08:24;100448.59;;;4.47;100.00
13080;BME280;6606;49.154;9.280;2023-11-22T05:11:08;100448.00;;;4.31;100.00
13080;BME280;6606;49.154;9.280;2023-11-22T05:13:50;100442.84;;;4.25;100.00
13080;BME280;6606;49.154;9.280;2023-11-22T05:16:32;100452.13;;;4.46;100.00
13080;BME280;6606;49.154;9.280;2023-11-22T05:19:26;100457.28;;;4.52;100.00
13080;BME280;6606;49.154;9.280;2023-11-22T05:22:07;100452.00;;;4.52;100.00
13080;BME280;6606;49.154;9.280;2023-11-22T05:24:58;100459.81;;;4.56;100.00
13080;BME280;6606;49.154;9.280;2023-11-22T05:27:39;100448.31;;;4.62;100.00
13080;BME280;6606;49.154;9.280;2023-11-22T05:30:23;100446.59;;;4.61;100.00
13080;BME280;6606;49.154;9.280;2023-11-22T05:33:05;100452.13;;;4.46;100.00
13080;BME280;6606;49.154;9.280;2023-11-22T05:35:47;100456.06;;;4.20;100.00
13080;BME280;6606;49.154;9.280;2023-11-22T05:38:29;100457.22;;;4.05;100.00
13080;BME280;6606;49.154;9.280;2023-11-22T05:41:12;100458.47;;;3.81;100.00
13080;BME280;6606;49.154;9.280;2023-11-22T05:43:53;100466.50;;;3.70;100.00
13080;BME280;6606;49.154;9.280;2023-11-22T05:46:35;100472.56;;;3.74;100.00
13080;BME280;6606;49.154;9.280;2023-11-22T05:49:24;100482.97;;;3.80;100.00
13080;BME280;6606;49.154;9.280;2023-11-22T05:52:06;100488.34;;;3.74;100.00
13080;BME280;6606;49.154;9.280;2023-11-22T05:54:48;100494.34;;;3.82;100.00
13080;BME280;6606;49.154;9.280;2023-11-22T05:57:31;100501.72;;;3.54;100.00
13080;BME280;6606;49.154;9.280;2023-11-22T06:00:13;100508.69;;;3.58;100.00
13080;BME280;6606;49.154;9.280;2023-11-22T06:02:56;100514.06;;;3.49;100.00
13080;BME280;6606;49.154;9.280;2023-11-22T06:05:37;100513.25;;;3.45;100.00
13080;BME280;6606;49.154;9.280;2023-11-22T06:08:19;100521.22;;;3.39;100.00
13080;BME280;6606;49.154;9.280;2023-11-22T06:11:01;100522.16;;;3.33;100.00
13080;BME280;6606;49.154;9.280;2023-11-22T06:13:45;100522.28;;;3.23;100.00
13080;BME280;6606;49.154;9.280;2023-11-22T06:16:27;100532.75;;;3.26;100.00
13080;BME280;6606;49.154;9.280;2023-11-22T06:19:19;100534.59;;;3.18;100.00
13080;BME280;6606;49.154;9.280;2023-11-22T06:22:01;100554.69;;;3.19;100.00
13080;BME280;6606;49.154;9.280;2023-11-22T06:24:43;100559.28;;;3.01;100.00
13080;BME280;6606;49.154;9.280;2023-11-22T06:27:24;100557.59;;;2.94;100.00
13080;BME280;6606;49.154;9.280;2023-11-22T06:30:08;100554.97;;;2.94;100.00
13080;BME280;6606;49.154;9.280;2023-11-22T06:32:50;100558.53;;;2.88;100.00
13080;BME280;6606;49.154;9.280;2023-11-22T06:35:32;100559.38;;;2.89;100.00
13080;BME280;6606;49.154;9.280;2023-11-22T06:38:14;100563.97;;;2.65;100.00
13080;BME280;6606;49.154;9.280;2023-11-22T06:40:56;100571.56;;;2.93;100.00
13080;BME280;6606;49.154;9.280;2023-11-22T06:43:38;100576.03;;;2.86;100.00
13080;BME280;6606;49.154;9.280;2023-11-22T06:46:21;100581.31;;;2.82;100.00
13080;BME280;6606;49.154;9.280;2023-11-22T06:49:05;100588.31;;;2.81;100.00
13080;BME280;6606;49.154;9.280;2023-11-22T06:51:47;100573.56;;;2.68;100.00
13080;BME280;6606;49.154;9.280;2023-11-22T06:54:28;100588.47;;;2.61;100.00
13080;BME280;6606;49.154;9.280;2023-11-22T06:57:11;100592.19;;;2.34;100.00
13080;BME280;6606;49.154;9.280;2023-11-22T06:59:53;100607.00;;;2.41;100.00
13080;BME280;6606;49.154;9.280;2023-11-22T07:02:36;100619.41;;;2.13;100.00
13080;BME280;6606;49.154;9.280;2023-11-22T07:05:18;100613.34;;;2.07;100.00
13080;BME280;6606;49.154;9.280;2023-11-22T07:07:59;100606.31;;;2.10;100.00
13080;BME280;6606;49.154;9.280;2023-11-22T07:10:42;100610.75;;;1.99;100.00
13080;BME280;6606;49.154;9.280;2023-11-22T07:13:25;100617.75;;;1.97;100.00
13080;BME280;6606;49.154;9.280;2023-11-22T07:16:07;100613.41;;;1.94;100.00
13080;BME280;6606;49.154;9.280;2023-11-22T07:18:50;100632.59;;;1.96;100.00
13080;BME280;6606;49.154;9.280;2023-11-22T07:21:32;100638.69;;;2.00;100.00
13080;BME280;6606;49.154;9.280;2023-11-22T07:24:24;100660.53;;;1.97;100.00
13080;BME280;6606;49.154;9.280;2023-11-22T07:27:06;100664.84;;;2.12;100.00
13080;BME280;6606;49.154;9.280;2023-11-22T07:29:47;100666.50;;;2.29;100.00
13080;BME280;6606;49.154;9.280;2023-11-22T07:32:32;100665.66;;;2.23;100.00
13080;BME280;6606;49.154;9.280;2023-11-22T07:35:16;100669.09;;;2.32;100.00
13080;BME280;6606;49.154;9.280;2023-11-22T07:38:01;100673.38;;;2.45;100.00
13080;BME280;6606;49.154;9.280;2023-11-22T07:40:45;100670.81;;;2.37;100.00
13080;BME280;6606;49.154;9.280;2023-11-22T07:43:27;100662.00;;;2.49;100.00
13080;BME280;6606;49.154;9.280;2023-11-22T07:46:08;100663.66;;;2.62;100.00
13080;BME280;6606;49.154;9.280;2023-11-22T07:48:52;100676.81;;;2.53;100.00
13080;BME280;6606;49.154;9.280;2023-11-22T07:51:36;100664.41;;;2.78;100.00
13080;BME280;6606;49.154;9.280;2023-11-22T07:54:18;100653.97;;;2.74;100.00
13080;BME280;6606;49.154;9.280;2023-11-22T07:57:03;100668.81;;;2.75;100.00
13080;BME280;6606;49.154;9.280;2023-11-22T07:59:46;100679.28;;;2.81;100.00
13080;BME280;6606;49.154;9.280;2023-11-22T08:02:28;100675.81;;;2.74;100.00
13080;BME280;6606;49.154;9.280;2023-11-22T08:05:11;100682.59;;;3.03;100.00
13080;BME280;6606;49.154;9.280;2023-11-22T08:07:57;100674.81;;;2.89;100.00
13080;BME280;6606;49.154;9.280;2023-11-22T08:10:38;100694.31;;;2.54;100.00
13080;BME280;6606;49.154;9.280;2023-11-22T08:13:33;100681.16;;;2.62;100.00
13080;BME280;6606;49.154;9.280;2023-11-22T08:16:17;100671.44;;;2.72;100.00
13080;BME280;6606;49.154;9.280;2023-11-22T08:19:00;100681.81;;;2.90;100.00
13080;BME280;6606;49.154;9.280;2023-11-22T08:21:42;100684.50;;;2.81;100.00
13080;BME280;6606;49.154;9.280;2023-11-22T08:24:26;100678.91;;;3.22;100.00
13080;BME280;6606;49.154;9.280;2023-11-22T08:27:08;100693.84;;;3.16;100.00
13080;BME280;6606;49.154;9.280;2023-11-22T08:29:50;100686.50;;;3.51;100.00
13080;BME280;6606;49.154;9.280;2023-11-22T08:32:32;100690.81;;;3.59;100.00
13080;BME280;6606;49.154;9.280;2023-11-22T08:35:15;100699.47;;;3.68;100.00
13080;BME280;6606;49.154;9.280;2023-11-22T08:37:57;100697.53;;;3.83;100.00
13080;BME280;6606;49.154;9.280;2023-11-22T08:40:41;100698.34;;;3.89;100.00
13080;BME280;6606;49.154;9.280;2023-11-22T08:43:23;100704.16;;;3.37;100.00
13080;BME280;6606;49.154;9.280;2023-11-22T08:46:06;100706.38;;;3.77;100.00
13080;BME280;6606;49.154;9.280;2023-11-22T08:48:49;100703.66;;;3.86;100.00
13080;BME280;6606;49.154;9.280;2023-11-22T08:51:31;100701.75;;;3.96;100.00
13080;BME280;6606;49.154;9.280;2023-11-22T08:54:19;100700.91;;;3.97;100.00
13080;BME280;6606;49.154;9.280;2023-11-22T08:57:03;100705.34;;;3.92;100.00
13080;BME280;6606;49.154;9.280;2023-11-22T08:59:46;100693.88;;;3.96;100.00
13080;BME280;6606;49.154;9.280;2023-11-22T09:02:28;100689.34;;;4.09;100.00
13080;BME280;6606;49.154;9.280;2023-11-22T09:05:09;100699.81;;;4.12;100.00
13080;BME280;6606;49.154;9.280;2023-11-22T09:07:53;100687.06;;;3.80;100.00
13080;BME280;6606;49.154;9.280;2023-11-22T09:10:36;100685.31;;;3.80;100.00
13080;BME280;6606;49.154;9.280;2023-11-22T09:13:22;100683.38;;;3.96;100.00
13080;BME280;6606;49.154;9.280;2023-11-22T09:16:05;100680.25;;;3.62;100.00
13080;BME280;6606;49.154;9.280;2023-11-22T09:18:48;100695.78;;;3.86;100.00
13080;BME280;6606;49.154;9.280;2023-11-22T09:21:30;100688.56;;;4.02;100.00
13080;BME280;6606;49.154;9.280;2023-11-22T09:24:12;100700.13;;;3.87;100.00
13080;BME280;6606;49.154;9.280;2023-11-22T09:26:54;100690.94;;;4.22;100.00
13080;BME280;6606;49.154;9.280;2023-11-22T09:29:37;100695.28;;;4.25;100.00
13080;BME280;6606;49.154;9.280;2023-11-22T09:32:19;100704.03;;;4.25;100.00
13080;BME280;6606;49.154;9.280;2023-11-22T09:35:01;100708.69;;;4.02;100.00
13080;BME280;6606;49.154;9.280;2023-11-22T09:37:43;100703.41;;;4.08;100.00
13080;BME280;6606;49.154;9.280;2023-11-22T09:40:26;100713.97;;;4.02;100.00
13080;BME280;6606;49.154;9.280;2023-11-22T09:43:09;100714.63;;;4.19;100.00
13080;BME280;6606;49.154;9.280;2023-11-22T09:45:53;100720.81;;;4.18;100.00
13080;BME280;6606;49.154;9.280;2023-11-22T09:48:36;100729.50;;;4.20;100.00
13080;BME280;6606;49.154;9.280;2023-11-22T09:51:23;100726.81;;;4.26;100.00
13080;BME280;6606;49.154;9.280;2023-11-22T09:54:06;100732.22;;;4.14;100.00
13080;BME280;6606;49.154;9.280;2023-11-22T09:56:50;100740.03;;;4.23;100.00
13080;BME280;6606;49.154;9.280;2023-11-22T09:59:41;100743.09;;;4.56;100.00
13080;BME280;6606;49.154;9.280;2023-11-22T10:02:24;100753.03;;;4.32;100.00
13080;BME280;6606;49.154;9.280;2023-11-22T10:05:09;100751.78;;;4.64;100.00
13080;BME280;6606;49.154;9.280;2023-11-22T10:07:51;100757.09;;;4.58;100.00
13080;BME280;6606;49.154;9.280;2023-11-22T10:10:35;100758.97;;;4.50;100.00
13080;BME280;6606;49.154;9.280;2023-11-22T10:13:17;100750.63;;;4.14;100.00
13080;BME280;6606;49.154;9.280;2023-11-22T10:16:09;100752.09;;;4.39;100.00
13080;BME280;6606;49.154;9.280;2023-11-22T10:18:52;100742.66;;;4.21;100.00
13080;BME280;6606;49.154;9.280;2023-11-22T10:21:34;100739.94;;;4.28;100.00
13080;BME280;6606;49.154;9.280;2023-11-22T10:24:21;100748.59;;;4.37;100.00
13080;BME280;6606;49.154;9.280;2023-11-22T10:27:03;100752.00;;;4.46;100.00
13080;BME280;6606;49.154;9.280;2023-11-22T10:29:46;100748.50;;;4.43;100.00
13080;BME280;6606;49.154;9.280;2023-11-22T10:32:28;100732.81;;;4.37;100.00
13080;BME280;6606;49.154;9.280;2023-11-22T10:35:12;100737.84;;;4.54;100.00
13080;BME280;6606;49.154;9.280;2023-11-22T10:37:55;100745.47;;;4.76;100.00
13080;BME280;6606;49.154;9.280;2023-11-22T10:40:41;100748.78;;;4.22;100.00
13080;BME280;6606;49.154;9.280;2023-11-22T10:43:29;100743.00;;;4.62;100.00
13080;BME280;6606;49.154;9.280;2023-11-22T10:46:13;100744.19;;;4.38;100.00
13080;BME280;6606;49.154;9.280;2023-11-22T10:48:55;100748.50;;;4.45;100.00
13080;BME280;6606;49.154;9.280;2023-11-22T10:51:40;100755.28;;;4.60;100.00
13080;BME280;6606;49.154;9.280;2023-11-22T10:54:22;100759.56;;;4.72;100.00
13080;BME280;6606;49.154;9.280;2023-11-22T10:57:05;100762.31;;;4.59;100.00
13080;BME280;6606;49.154;9.280;2023-11-22T10:59:50;100769.28;;;4.65;100.00
13080;BME280;6606;49.154;9.280;2023-11-22T11:02:40;100765.97;;;4.51;100.00
13080;BME280;6606;49.154;9.280;2023-11-22T11:05:26;100775.41;;;4.67;100.00
13080;BME280;6606;49.154;9.280;2023-11-22T11:08:11;100779.56;;;4.83;100.00
13080;BME280;6606;49.154;9.280;2023-11-22T11:10:59;100776.44;;;4.54;100.00
13080;BME280;6606;49.154;9.280;2023-11-22T11:14:01;100787.50;;;4.80;100.00
13080;BME280;6606;49.154;9.280;2023-11-22T11:16:44;100785.03;;;4.71;100.00
13080;BME280;6606;49.154;9.280;2023-11-22T11:19:30;100778.66;;;4.88;100.00
13080;BME280;6606;49.154;9.280;2023-11-22T11:22:12;100782.97;;;4.92;100.00
13080;BME280;6606;49.154;9.280;2023-11-22T11:25:04;100773.31;;;4.92;100.00
13080;BME280;6606;49.154;9.280;2023-11-22T11:27:55;100784.94;;;4.76;100.00
13080;BME280;6606;49.154;9.280;2023-11-22T11:30:45;100775.22;;;4.82;100.00
13080;BME280;6606;49.154;9.280;2023-11-22T11:33:53;100772.06;;;5.16;100.00
13080;BME280;6606;49.154;9.280;2023-11-22T11:36:37;100783.66;;;5.06;100.00
13080;BME280;6606;49.154;9.280;2023-11-22T11:39:26;100790.91;;;4.89;100.00
13080;BME280;6606;49.154;9.280;2023-11-22T11:42:13;100790.56;;;5.12;100.00
13080;BME280;6606;49.154;9.280;2023-11-22T11:45:05;100798.75;;;4.92;100.00
13080;BME280;6606;49.154;9.280;2023-11-22T11:47:47;100794.03;;;5.15;100.00
13080;BME280;6606;49.154;9.280;2023-11-22T11:50:29;100788.50;;;5.32;100.00
13080;BME280;6606;49.154;9.280;2023-11-22T11:53:11;100795.72;;;5.19;100.00
13080;BME280;6606;49.154;9.280;2023-11-22T11:55:53;100803.56;;;5.22;100.00
13080;BME280;6606;49.154;9.280;2023-11-22T11:58:38;100805.78;;;4.93;100.00
13080;BME280;6606;49.154;9.280;2023-11-22T12:01:22;100810.06;;;5.00;100.00
13080;BME280;6606;49.154;9.280;2023-11-22T12:04:06;100811.97;;;4.89;100.00
13080;BME280;6606;49.154;9.280;2023-11-22T12:06:47;100812.78;;;4.94;100.00
13080;BME280;6606;49.154;9.280;2023-11-22T12:09:31;100820.34;;;5.15;100.00
13080;BME280;6606;49.154;9.280;2023-11-22T12:12:16;100824.97;;;5.01;100.00
13080;BME280;6606;49.154;9.280;2023-11-22T12:15:18;100828.44;;;5.03;100.00
13080;BME280;6606;49.154;9.280;2023-11-22T12:18:00;100835.78;;;4.79;100.00
13080;BME280;6606;49.154;9.280;2023-11-22T12:20:54;100845.66;;;4.60;100.00
13080;BME280;6606;49.154;9.280;2023-11-22T12:23:37;100835.47;;;5.02;100.00
13080;BME280;6606;49.154;9.280;2023-11-22T12:26:20;100844.91;;;5.17;100.00
13080;BME280;6606;49.154;9.280;2023-11-22T12:29:02;100855.75;;;4.96;100.00
13080;BME280;6606;49.154;9.280;2023-11-22T12:31:46;100837.72;;;4.67;100.00
13080;BME280;6606;49.154;9.280;2023-11-22T12:34:33;100829.19;;;4.41;100.00
13080;BME280;6606;49.154;9.280;2023-11-22T12:37:14;100818.25;;;4.78;100.00
13080;BME280;6606;49.154;9.280;2023-11-22T12:39:56;100821.22;;;4.49;100.00
13080;BME280;6606;49.154;9.280;2023-11-22T12:42:48;100832.69;;;4.45;100.00
13080;BME280;6606;49.154;9.280;2023-11-22T12:45:30;100833.59;;;4.42;100.00
13080;BME280;6606;49.154;9.280;2023-11-22T12:48:24;100821.06;;;4.64;100.00
13080;BME280;6606;49.154;9.280;2023-11-22T12:51:15;100807.84;;;4.71;100.00
13080;BME280;6606;49.154;9.280;2023-11-22T12:53:56;100802.09;;;4.33;100.00
13080;BME280;6606;49.154;9.280;2023-11-22T12:56:38;100799.44;;;4.39;100.00
13080;BME280;6606;49.154;9.280;2023-11-22T12:59:28;100809.72;;;4.58;100.00
13080;BME280;6606;49.154;9.280;2023-11-22T13:02:10;100810.69;;;4.51;100.00
13080;BME280;6606;49.154;9.280;2023-11-22T13:04:56;100808.28;;;4.32;100.00
13080;BME280;6606;49.154;9.280;2023-11-22T13:07:40;100803.78;;;4.42;100.00
13080;BME280;6606;49.154;9.280;2023-11-22T13:10:24;100807.19;;;4.49;100.00
13080;BME280;6606;49.154;9.280;2023-11-22T13:13:20;100813.66;;;4.23;100.00
13080;BME280;6606;49.154;9.280;2023-11-22T13:16:03;100823.44;;;4.09;100.00
13080;BME280;6606;49.154;9.280;2023-11-22T13:18:52;100838.09;;;4.31;100.00
13080;BME280;6606;49.154;9.280;2023-11-22T13:21:35;100850.38;;;4.29;100.00
13080;BME280;6606;49.154;9.280;2023-11-22T13:24:19;100837.94;;;4.43;100.00
13080;BME280;6606;49.154;9.280;2023-11-22T13:27:01;100837.91;;;4.47;100.00
13080;BME280;6606;49.154;9.280;2023-11-22T13:29:55;100819.34;;;4.59;100.00
13080;BME280;6606;49.154;9.280;2023-11-22T13:32:46;100802.66;;;4.60;100.00
13080;BME280;6606;49.154;9.280;2023-11-22T13:35:30;100802.44;;;4.78;100.00
13080;BME280;6606;49.154;9.280;2023-11-22T13:38:19;100788.81;;;4.46;100.00
13080;BME280;6606;49.154;9.280;2023-11-22T13:41:01;100793.19;;;4.47;100.00
13080;BME280;6606;49.154;9.280;2023-11-22T13:43:43;100785.09;;;4.62;100.00
13080;BME280;6606;49.154;9.280;2023-11-22T13:46:27;100808.88;;;4.56;100.00
13080;BME280;6606;49.154;9.280;2023-11-22T13:49:08;100808.72;;;4.70;100.00
13080;BME280;6606;49.154;9.280;2023-11-22T13:51:51;100799.72;;;4.86;100.00
13080;BME280;6606;49.154;9.280;2023-11-22T13:54:34;100785.78;;;4.78;100.00
13080;BME280;6606;49.154;9.280;2023-11-22T13:57:19;100785.19;;;4.56;100.00
13080;BME280;6606;49.154;9.280;2023-11-22T14:00:04;100797.22;;;4.75;100.00
13080;BME280;6606;49.154;9.280;2023-11-22T14:02:50;100797.16;;;4.81;100.00
13080;BME280;6606;49.154;9.280;2023-11-22T14:05:38;100800.81;;;4.71;100.00
13080;BME280;6606;49.154;9.280;2023-11-22T14:08:20;100806.66;;;4.92;100.00
13080;BME280;6606;49.154;9.280;2023-11-22T14:11:03;100802.63;;;4.64;100.00
13080;BME280;6606;49.154;9.280;2023-11-22T14:13:45;100816.81;;;4.53;100.00
13080;BME280;6606;49.154;9.280;2023-11-22T14:16:27;100809.69;;;4.61;100.00
13080;BME280;6606;49.154;9.280;2023-11-22T14:19:11;100821.13;;;4.57;100.00
13080;BME280;6606;49.154;9.280;2023-11-22T14:21:53;100837.88;;;4.50;100.00
13080;BME280;6606;49.154;9.280;2023-11-22T14:24:35;100837.91;;;4.48;100.00
13080;BME280;6606;49.154;9.280;2023-11-22T14:27:20;100838.13;;;4.27;100.00